createdAt,value
2022-10-11T00:01:27.774Z,7.03
2022-10-11T00:03:58.229Z,7.07
2022-10-11T00:06:26.969Z,7.68
2022-10-11T00:08:55.332Z,9.25
2022-10-11T00:11:23.420Z,7.90
2022-10-11T00:13:57.257Z,7.72
2022-10-11T00:16:26.077Z,8.07
2022-10-11T00:18:55.042Z,7.65
2022-10-11T00:21:26.308Z,9.07
2022-10-11T00:23:54.110Z,9.95
2022-10-11T00:26:24.211Z,7.20
2022-10-11T00:28:54.399Z,7.68
2022-10-11T00:31:22.903Z,5.40
2022-10-11T00:33:51.271Z,6.90
2022-10-11T00:36:19.832Z,11.90
2022-10-11T00:38:49.166Z,5.25
2022-10-11T00:41:19.143Z,10.57
2022-10-11T00:43:47.753Z,7.95
2022-10-11T00:46:21.777Z,12.88
2022-10-11T00:49:05.366Z,7.95
2022-10-11T00:51:48.928Z,8.43
2022-10-11T00:54:25.593Z,7.78
2022-10-11T00:57:06.724Z,16.95
2022-10-11T00:59:44.473Z,5.90
2022-10-11T01:02:11.854Z,13.23
2022-10-11T01:04:40.707Z,10.60
2022-10-11T01:07:13.362Z,9.75
2022-10-11T01:09:47.452Z,5.53
2022-10-11T01:12:23.463Z,11.75
2022-10-11T01:15:18.661Z,17.02
2022-10-11T01:18:17.948Z,7.57
2022-10-11T01:21:25.459Z,12.52
2022-10-11T01:24:31.738Z,8.57
2022-10-11T01:27:29.342Z,10.63
2022-10-11T01:30:19.261Z,12.43
2022-10-11T01:33:00.090Z,11.57
2022-10-11T01:35:38.872Z,16.52
2022-10-11T01:38:30.103Z,11.25
2022-10-11T01:41:07.710Z,16.42
2022-10-11T01:43:38.515Z,11.23
2022-10-11T01:46:10.505Z,13.35
2022-10-11T01:49:06.661Z,17.38
2022-10-11T01:51:47.326Z,13.18
2022-10-11T01:55:08.121Z,15.57
2022-10-11T01:57:36.399Z,11.95
2022-10-11T02:00:17.551Z,10.10
2022-10-11T02:03:15.855Z,10.90
2022-10-11T02:05:49.300Z,14.88
2022-10-11T02:08:49.174Z,11.35
2022-10-11T02:11:26.763Z,16.65
2022-10-11T02:14:23.781Z,15.18
2022-10-11T02:16:55.314Z,9.57
2022-10-11T02:19:29.474Z,15.45
2022-10-11T02:22:02.355Z,14.65
2022-10-11T02:24:35.010Z,16.20
2022-10-11T02:27:04.121Z,9.48
2022-10-11T02:29:34.866Z,21.02
2022-10-11T02:32:04.254Z,12.70
2022-10-11T02:34:40.145Z,20.45
2022-10-11T02:37:11.977Z,15.23
2022-10-11T02:39:50.170Z,13.02
2022-10-11T02:42:21.538Z,19.85
2022-10-11T02:45:00.825Z,12.98
2022-10-11T02:47:32.881Z,10.77
2022-10-11T02:50:02.148Z,16.15
2022-10-11T02:52:30.562Z,15.23
2022-10-11T02:54:59.658Z,12.13
2022-10-11T02:57:33.231Z,15.07
2022-10-11T03:00:04.560Z,11.20
2022-10-11T03:02:33.370Z,13.48
2022-10-11T03:05:05.051Z,9.38
2022-10-11T03:07:35.752Z,17.83
2022-10-11T03:10:05.674Z,11.48
2022-10-11T03:12:36.571Z,14.25
2022-10-11T03:15:04.601Z,11.52
2022-10-11T03:17:37.283Z,14.52
2022-10-11T03:20:07.765Z,13.60
2022-10-11T03:22:37.087Z,12.98
2022-10-11T03:25:08.239Z,15.15
2022-10-11T03:27:39.914Z,17.60
2022-10-11T03:30:14.193Z,9.65
2022-10-11T03:32:46.616Z,18.58
2022-10-11T03:35:18.338Z,11.98
2022-10-11T03:37:47.754Z,14.27
2022-10-11T03:40:19.326Z,17.05
2022-10-11T03:42:54.484Z,17.20
2022-10-11T03:45:26.244Z,24.65
2022-10-11T03:47:54.944Z,15.48
2022-10-11T03:50:24.877Z,15.80
2022-10-11T03:52:55.666Z,13.73
2022-10-11T03:55:24.013Z,25.00
2022-10-11T03:57:52.856Z,17.77
2022-10-11T04:00:20.287Z,12.77
2022-10-11T04:02:48.439Z,18.77
2022-10-11T04:05:18.161Z,15.20
2022-10-11T04:07:45.765Z,18.52
2022-10-11T04:10:19.830Z,15.30
2022-10-11T04:12:48.439Z,14.77
2022-10-11T04:15:17.452Z,14.70
2022-10-11T04:17:47.942Z,23.98
2022-10-11T04:20:18.332Z,16.38
2022-10-11T04:22:45.838Z,14.40
2022-10-11T04:25:13.804Z,14.68
2022-10-11T04:27:41.249Z,21.30
2022-10-11T04:30:11.355Z,14.98
2022-10-11T04:32:41.551Z,14.20
2022-10-11T04:35:10.253Z,11.73
2022-10-11T04:37:39.325Z,15.68
2022-10-11T04:40:09.228Z,20.98
2022-10-11T04:42:37.960Z,19.85
2022-10-11T04:45:12.397Z,14.48
2022-10-11T04:47:42.894Z,12.48
2022-10-11T04:50:14.604Z,15.43
2022-10-11T04:52:43.718Z,17.38
2022-10-11T04:55:11.726Z,22.45
2022-10-11T04:57:41.641Z,22.48
2022-10-11T05:00:11.523Z,15.18
2022-10-11T05:02:41.344Z,21.02
2022-10-11T05:05:10.485Z,18.17
2022-10-11T05:07:37.946Z,15.27
2022-10-11T05:13:41.043Z,19.92
2022-10-11T05:16:16.011Z,20.08
2022-10-11T05:18:46.140Z,18.23
2022-10-11T05:25:32.760Z,16.40
2022-10-11T05:28:01.840Z,22.05
2022-10-11T05:30:30.768Z,18.85
2022-10-11T05:33:03.917Z,19.05
2022-10-11T05:35:35.279Z,17.88
2022-10-11T05:38:03.579Z,37.63
2022-10-11T05:40:32.945Z,53.05
2022-10-11T05:43:01.582Z,34.60
2022-10-11T05:45:28.915Z,56.17
2022-10-11T05:48:00.827Z,72.28
2022-10-11T05:50:27.995Z,38.33
2022-10-11T05:52:55.994Z,18.63
2022-10-11T05:55:23.405Z,20.35
2022-10-11T05:57:54.636Z,18.83
2022-10-11T06:00:23.891Z,12.55
2022-10-11T06:02:51.112Z,15.05
2022-10-11T06:05:18.519Z,18.15
2022-10-11T06:07:46.281Z,21.33
2022-10-11T06:10:15.958Z,23.45
2022-10-11T06:12:43.911Z,16.58
2022-10-11T06:15:11.362Z,20.65
2022-10-11T06:17:39.232Z,21.05
2022-10-11T06:20:07.101Z,20.45
2022-10-11T06:22:34.840Z,17.80
2022-10-11T06:25:03.074Z,20.15
2022-10-11T06:27:30.375Z,34.63
2022-10-11T06:29:58.614Z,27.08
2022-10-11T06:32:26.205Z,22.40
2022-10-11T06:34:53.507Z,23.30
2022-10-11T06:37:20.695Z,22.60
2022-10-11T06:39:50.101Z,18.98
2022-10-11T06:42:17.443Z,15.77
2022-10-11T06:44:44.836Z,20.88
2022-10-11T06:47:11.965Z,34.00
2022-10-11T06:49:39.736Z,12.10
2022-10-11T06:52:07.121Z,27.00
2022-10-11T06:54:35.269Z,24.75
2022-10-11T06:57:02.792Z,18.15
2022-10-11T06:59:29.906Z,15.77
2022-10-11T07:01:58.211Z,12.38
2022-10-11T07:04:27.727Z,22.60
2022-10-11T07:06:55.123Z,20.27
2022-10-11T07:09:22.540Z,14.18
2022-10-11T07:11:50.467Z,25.00
2022-10-11T07:14:18.030Z,23.92
2022-10-11T07:16:45.234Z,22.20
2022-10-11T07:19:12.797Z,18.02
2022-10-11T07:21:39.997Z,18.85
2022-10-11T07:24:08.384Z,19.42
2022-10-11T07:26:38.513Z,29.25
2022-10-11T07:29:08.275Z,16.23
2022-10-11T07:31:37.909Z,13.75
2022-10-11T07:34:06.080Z,30.95
2022-10-11T07:36:33.305Z,25.13
2022-10-11T07:39:04.342Z,17.77
2022-10-11T07:41:36.498Z,16.17
2022-10-11T07:44:05.031Z,18.77
2022-10-11T07:46:33.623Z,16.48
2022-10-11T07:49:04.334Z,15.80
2022-10-11T07:51:33.214Z,16.50
2022-10-11T07:54:06.163Z,24.95
2022-10-11T07:56:35.337Z,31.95
2022-10-11T07:59:05.789Z,22.90
2022-10-11T08:01:33.507Z,16.42
2022-10-11T08:04:01.500Z,14.55
2022-10-11T08:06:31.867Z,13.77
2022-10-11T08:09:00.613Z,15.90
2022-10-11T08:11:35.115Z,17.40
2022-10-11T08:14:11.084Z,16.23
2022-10-11T08:16:40.757Z,17.38
2022-10-11T08:19:08.070Z,13.48
2022-10-11T08:21:35.274Z,11.85
2022-10-11T08:24:12.332Z,16.10
2022-10-11T08:26:40.079Z,13.75
2022-10-11T08:29:07.413Z,14.25
2022-10-11T08:31:35.248Z,19.05
2022-10-11T08:34:03.053Z,20.80
2022-10-11T08:36:30.237Z,14.45
2022-10-11T08:38:58.192Z,19.67
2022-10-11T08:41:35.735Z,11.98
2022-10-11T08:44:19.065Z,15.55
2022-10-11T08:46:54.764Z,22.83
2022-10-11T08:49:27.061Z,15.00
2022-10-11T08:52:00.406Z,13.38
2022-10-11T08:54:36.964Z,8.60
2022-10-11T08:57:06.003Z,11.55
2022-10-11T08:59:51.556Z,14.57
2022-10-11T09:02:25.509Z,13.20
2022-10-11T09:04:56.323Z,13.57
2022-10-11T09:07:38.404Z,9.50
2022-10-11T09:10:37.797Z,15.38
2022-10-11T09:13:11.535Z,13.63
2022-10-11T09:16:12.046Z,12.73
2022-10-11T09:19:03.708Z,19.20
2022-10-11T09:21:50.601Z,13.43
2022-10-11T09:24:54.416Z,12.77
2022-10-11T09:27:57.821Z,13.55
2022-10-11T09:30:21.529Z,23.70
2022-10-11T09:32:58.048Z,16.10
2022-10-11T09:35:25.311Z,13.90
2022-10-11T09:38:00.800Z,11.93
2022-10-11T09:41:02.121Z,12.35
2022-10-11T09:43:29.431Z,16.08
2022-10-11T09:45:56.754Z,24.65
2022-10-11T09:48:28.173Z,15.27
2022-10-11T09:51:02.147Z,9.82
2022-10-11T09:53:59.546Z,15.80
2022-10-11T09:56:29.303Z,9.73
2022-10-11T09:59:16.175Z,19.23
2022-10-11T10:01:44.651Z,13.52
2022-10-11T10:04:20.317Z,11.68
2022-10-11T10:06:47.549Z,16.35
2022-10-11T10:09:30.272Z,11.60
2022-10-11T10:11:58.564Z,19.25
2022-10-11T10:14:28.365Z,22.75
2022-10-11T10:17:08.909Z,16.58
2022-10-11T10:19:44.973Z,7.93
2022-10-11T10:22:18.751Z,21.70
2022-10-11T10:24:48.009Z,18.20
2022-10-11T10:27:17.075Z,14.85
2022-10-11T10:30:07.887Z,16.35
2022-10-11T10:32:48.703Z,14.77
2022-10-11T10:35:42.695Z,22.02
2022-10-11T10:38:17.518Z,14.18
2022-10-11T10:40:50.973Z,20.70
2022-10-11T10:43:34.408Z,13.60
2022-10-11T10:46:33.523Z,22.27
2022-10-11T10:49:52.473Z,15.85
2022-10-11T10:52:20.797Z,10.80
2022-10-11T10:55:09.639Z,12.15
2022-10-11T10:58:16.351Z,11.30
2022-10-11T11:00:51.281Z,13.05
2022-10-11T11:03:51.645Z,13.68
2022-10-11T11:06:36.762Z,12.63
2022-10-11T11:09:25.569Z,17.40
2022-10-11T11:11:52.665Z,13.93
2022-10-11T11:14:46.938Z,15.63
2022-10-11T11:17:40.468Z,11.48
2022-10-11T11:20:51.656Z,9.68
2022-10-11T11:23:42.508Z,13.57
2022-10-11T11:26:26.297Z,11.13
2022-10-11T11:29:22.625Z,18.10
2022-10-11T11:34:38.771Z,17.65
2022-10-11T11:37:15.508Z,10.68
2022-10-11T11:39:47.412Z,13.05
2022-10-11T11:42:26.446Z,18.23
2022-10-11T11:44:53.749Z,13.48
2022-10-11T11:47:25.353Z,14.23
2022-10-11T11:50:00.227Z,14.82
2022-10-11T11:52:35.976Z,15.10
2022-10-11T11:55:13.507Z,15.43
2022-10-11T11:58:08.063Z,9.52
2022-10-11T12:00:47.030Z,17.42
2022-10-11T12:03:20.929Z,13.25
2022-10-11T12:06:14.765Z,17.42
2022-10-11T12:09:04.137Z,10.65
2022-10-11T12:11:40.727Z,12.45
2022-10-11T12:14:27.441Z,12.65
2022-10-11T12:17:08.594Z,15.60
2022-10-11T12:19:39.780Z,18.95
2022-10-11T12:22:37.823Z,10.77
2022-10-11T12:25:14.963Z,8.55
2022-10-11T12:28:20.471Z,13.43
2022-10-11T12:30:49.206Z,15.88
2022-10-11T12:33:45.372Z,10.65
2022-10-11T12:36:33.829Z,10.68
2022-10-11T12:39:19.514Z,9.02
2022-10-11T12:41:53.902Z,15.38
2022-10-11T12:44:27.199Z,7.57
2022-10-11T12:46:56.447Z,16.27
2022-10-11T12:50:02.390Z,7.95
2022-10-11T12:52:33.722Z,8.18
2022-10-11T12:55:37.897Z,10.68
2022-10-11T12:58:26.104Z,8.00
2022-10-11T13:00:58.237Z,9.02
2022-10-11T13:03:33.762Z,15.25
2022-10-11T13:06:19.129Z,8.05
2022-10-11T13:08:51.844Z,9.52
2022-10-11T13:11:40.302Z,11.02
2022-10-11T13:14:39.929Z,6.25
2022-10-11T13:17:22.045Z,7.65
2022-10-11T13:19:57.453Z,8.13
2022-10-11T13:22:24.730Z,8.40
2022-10-11T13:24:56.040Z,7.95
2022-10-11T13:27:25.620Z,10.27
2022-10-11T13:30:02.399Z,10.07
2022-10-11T13:32:31.280Z,10.30
2022-10-11T13:35:08.426Z,10.05
2022-10-11T13:37:43.630Z,10.32
2022-10-11T13:40:20.549Z,10.35
2022-10-11T13:42:50.205Z,8.35
2022-10-11T13:45:28.102Z,11.68
2022-10-11T13:47:55.905Z,10.55
2022-10-11T13:50:36.991Z,10.05
2022-10-11T13:53:07.215Z,7.70
2022-10-11T13:55:54.983Z,5.78
2022-10-11T13:58:34.746Z,6.75
2022-10-11T14:01:06.023Z,9.85
2022-10-11T14:03:39.273Z,7.25
2022-10-11T14:06:07.002Z,6.05
2022-10-11T14:08:40.262Z,12.13
2022-10-11T14:11:08.624Z,6.47
2022-10-11T14:13:46.759Z,7.15
2022-10-11T14:16:29.566Z,7.80
2022-10-11T14:19:00.113Z,7.45
2022-10-11T14:21:32.938Z,5.50
2022-10-11T14:24:12.729Z,5.97
2022-10-11T14:26:43.144Z,8.55
2022-10-11T14:29:19.816Z,7.93
2022-10-11T14:31:50.990Z,7.28
2022-10-11T14:34:23.814Z,5.53
2022-10-11T14:36:54.170Z,4.95
2022-10-11T14:39:24.882Z,6.60
2022-10-11T14:41:53.123Z,6.95
2022-10-11T14:44:22.825Z,7.53
2022-10-11T14:46:54.116Z,6.88
2022-10-11T14:49:34.667Z,6.53
2022-10-11T14:52:10.148Z,7.88
2022-10-11T14:54:37.379Z,9.50
2022-10-11T14:57:06.215Z,7.68
2022-10-11T14:59:39.355Z,7.80
2022-10-11T15:02:09.224Z,6.55
2022-10-11T15:04:40.657Z,10.07
2022-10-11T15:07:08.681Z,7.88
2022-10-11T15:09:36.973Z,8.68
2022-10-11T15:12:07.681Z,8.85
2022-10-11T15:14:39.507Z,9.10
2022-10-11T15:17:07.043Z,10.95
2022-10-11T15:19:36.435Z,8.15
2022-10-11T15:22:08.462Z,7.45
2022-10-11T15:24:37.060Z,11.57
2022-10-11T15:27:04.408Z,8.32
2022-10-11T15:29:32.154Z,6.85
2022-10-11T15:31:59.906Z,9.88
2022-10-11T15:34:27.554Z,15.68
2022-10-11T15:36:56.329Z,6.68
2022-10-11T15:39:31.543Z,8.07
2022-10-11T15:42:00.237Z,12.57
2022-10-11T15:44:30.215Z,10.63
2022-10-11T15:46:59.943Z,14.43
2022-10-11T15:49:27.971Z,15.30
2022-10-11T15:51:55.933Z,9.43
2022-10-11T15:54:24.353Z,8.57
2022-10-11T15:56:52.824Z,11.55
2022-10-11T15:59:21.714Z,13.23
2022-10-11T16:01:52.094Z,13.98
2022-10-11T16:04:21.159Z,15.30
2022-10-11T16:06:49.559Z,23.00
2022-10-11T16:09:24.485Z,14.27
2022-10-11T16:12:00.155Z,15.13
2022-10-11T16:14:30.301Z,22.27
2022-10-11T16:17:02.978Z,13.90
2022-10-11T16:19:33.159Z,16.23
2022-10-11T16:22:01.566Z,7.93
2022-10-11T16:24:37.298Z,8.90
2022-10-11T16:27:05.195Z,17.48
2022-10-11T16:29:36.085Z,14.40
2022-10-11T16:32:06.074Z,15.05
2022-10-11T16:34:34.238Z,18.02
2022-10-11T16:37:03.999Z,13.82
2022-10-11T16:39:33.816Z,8.38
2022-10-11T16:42:07.629Z,15.43
2022-10-11T16:44:37.915Z,19.88
2022-10-11T16:47:09.366Z,16.95
2022-10-11T16:49:39.397Z,15.38
2022-10-11T16:52:10.913Z,15.35
2022-10-11T16:54:40.125Z,17.05
2022-10-11T16:57:11.695Z,27.35
2022-10-11T16:59:39.634Z,24.75
2022-10-11T17:02:21.651Z,25.52
2022-10-11T17:04:54.258Z,20.55
2022-10-11T17:07:23.713Z,17.65
2022-10-11T17:09:58.676Z,25.00
2022-10-11T17:12:26.047Z,28.15
2022-10-11T17:14:53.760Z,30.65
2022-10-11T17:17:21.502Z,17.73
2022-10-11T17:19:49.106Z,22.25
2022-10-11T17:22:18.364Z,25.63
2022-10-11T17:24:49.754Z,21.33
2022-10-11T17:27:17.002Z,22.58
2022-10-11T17:29:55.872Z,18.75
2022-10-11T17:32:35.744Z,17.15
2022-10-11T17:35:05.641Z,16.60
2022-10-11T17:37:36.338Z,16.05
2022-10-11T17:40:08.313Z,21.98
2022-10-11T17:42:40.586Z,27.35
2022-10-11T17:45:08.069Z,22.70
2022-10-11T17:48:17.728Z,29.65
2022-10-11T17:50:57.955Z,30.88
2022-10-11T17:53:29.366Z,27.15
2022-10-11T17:56:11.363Z,22.55
2022-10-11T17:58:47.527Z,18.13
2022-10-11T18:01:27.073Z,10.63
2022-10-11T18:06:48.979Z,15.77
2022-10-11T18:09:26.921Z,21.50
2022-10-11T18:17:34.875Z,21.00
2022-10-11T18:20:05.677Z,35.63
2022-10-11T18:22:38.367Z,29.63
2022-10-11T18:25:12.541Z,39.28
2022-10-11T18:27:46.483Z,24.58
2022-10-11T18:32:59.845Z,27.88
2022-10-11T18:35:30.853Z,31.73
2022-10-11T18:38:01.000Z,26.02
2022-10-11T18:40:35.748Z,18.30
2022-10-11T18:45:54.214Z,26.90
2022-10-11T18:48:31.018Z,27.42
2022-10-11T18:51:08.325Z,27.60
2022-10-11T18:53:39.994Z,20.65
2022-10-11T18:56:23.922Z,21.25
2022-10-11T18:58:54.499Z,38.30
2022-10-11T19:04:20.067Z,37.80
2022-10-11T19:06:52.646Z,20.73
2022-10-11T19:09:32.284Z,19.65
2022-10-11T19:12:07.738Z,17.83
2022-10-11T19:14:36.328Z,16.42
2022-10-11T19:17:14.431Z,26.73
2022-10-11T19:19:45.674Z,15.30
2022-10-11T19:22:16.053Z,19.58
2022-10-11T19:24:45.413Z,21.85
2022-10-11T19:27:14.852Z,20.30
2022-10-11T19:29:45.714Z,18.15
2022-10-11T19:32:22.251Z,14.75
2022-10-11T19:34:56.361Z,24.55
2022-10-11T19:37:54.850Z,19.88
2022-10-11T19:40:23.511Z,16.15
2022-10-11T19:42:55.457Z,18.27
2022-10-11T19:45:26.215Z,21.52
2022-10-11T19:48:05.390Z,16.65
2022-10-11T19:50:33.029Z,22.40
2022-10-11T19:53:02.076Z,18.30
2022-10-11T19:55:45.669Z,24.05
2022-10-11T19:58:16.999Z,15.60
2022-10-11T20:00:48.618Z,19.83
2022-10-11T20:03:17.862Z,17.95
2022-10-11T20:05:49.842Z,21.17
2022-10-11T20:08:17.612Z,17.83
2022-10-11T20:10:48.212Z,23.73
2022-10-11T20:13:17.104Z,22.42
2022-10-11T20:15:44.989Z,20.55
2022-10-11T20:18:37.512Z,18.70
2022-10-11T20:21:12.454Z,22.02
2022-10-11T20:23:45.117Z,21.17
2022-10-11T20:26:25.138Z,23.15
2022-10-11T20:28:57.471Z,20.55
2022-10-11T20:31:39.766Z,19.88
2022-10-11T20:34:38.868Z,23.23
2022-10-11T20:37:24.383Z,20.48
2022-10-11T20:39:56.346Z,22.05
2022-10-11T20:42:28.923Z,19.52
2022-10-11T20:44:59.431Z,23.15
2022-10-11T20:47:30.944Z,21.77
2022-10-11T20:49:58.839Z,24.75
2022-10-11T20:52:31.727Z,26.13
2022-10-11T20:55:03.338Z,26.23
2022-10-11T20:57:37.997Z,25.25
2022-10-11T21:00:14.579Z,23.95
2022-10-11T21:02:44.766Z,21.42
2022-10-11T21:05:14.383Z,23.30
2022-10-11T21:07:41.689Z,24.30
2022-10-11T21:10:14.937Z,27.45
2022-10-11T21:12:44.465Z,22.92
2022-10-11T21:15:16.814Z,27.48
2022-10-11T21:17:46.582Z,20.15
2022-10-11T21:20:43.021Z,24.30
2022-10-11T21:23:16.233Z,21.75
2022-10-11T21:25:47.086Z,25.27
2022-10-11T21:28:16.570Z,24.52
2022-10-11T21:30:44.962Z,21.20
2022-10-11T21:33:14.261Z,25.15
2022-10-11T21:35:45.039Z,23.13
2022-10-11T21:38:12.858Z,23.20
2022-10-11T21:40:41.836Z,22.42
2022-10-11T21:43:11.149Z,21.05
2022-10-11T21:45:38.904Z,25.23
2022-10-11T21:48:10.135Z,25.00
2022-10-11T21:50:41.720Z,28.45
2022-10-11T21:53:13.169Z,23.27
2022-10-11T21:55:42.572Z,19.80
2022-10-11T21:58:14.560Z,26.55
2022-10-11T22:00:41.810Z,21.05
2022-10-11T22:03:13.057Z,24.95
2022-10-11T22:05:46.589Z,24.63
2022-10-11T22:08:15.522Z,25.20
2022-10-11T22:10:46.226Z,30.73
2022-10-11T22:13:13.767Z,28.42
2022-10-11T22:15:45.590Z,29.58
2022-10-11T22:18:12.919Z,23.83
2022-10-11T22:23:24.432Z,25.75
2022-10-11T22:25:53.210Z,21.90
2022-10-11T22:28:35.278Z,24.67
2022-10-11T22:31:07.843Z,21.50
2022-10-11T22:33:37.901Z,25.65
2022-10-11T22:36:16.443Z,29.98
2022-10-11T22:38:53.150Z,25.98
2022-10-11T22:41:22.820Z,30.80
2022-10-11T22:43:54.751Z,24.70
2022-10-11T22:46:22.181Z,22.48
2022-10-11T22:51:32.690Z,30.13
2022-10-11T22:54:01.527Z,33.22
2022-10-11T22:56:29.869Z,32.90
2022-10-11T22:59:00.416Z,24.63
2022-10-11T23:01:32.926Z,32.40
2022-10-11T23:04:05.916Z,31.13
2022-10-11T23:06:35.292Z,23.38
2022-10-11T23:09:05.026Z,25.02
2022-10-11T23:14:15.069Z,29.55
2022-10-11T23:16:42.466Z,27.70
2022-10-11T23:19:14.805Z,28.35
2022-10-11T23:21:49.432Z,29.85
2022-10-11T23:24:18.771Z,27.40
2022-10-11T23:26:47.037Z,26.95
2022-10-11T23:29:23.137Z,26.95
2022-10-11T23:31:54.470Z,26.30
2022-10-11T23:34:27.048Z,28.10
2022-10-11T23:36:57.958Z,22.85
2022-10-11T23:39:29.787Z,25.65
2022-10-11T23:41:57.688Z,27.10
2022-10-11T23:44:26.531Z,28.33
2022-10-11T23:46:58.226Z,27.67
2022-10-11T23:49:26.069Z,24.98
2022-10-11T23:51:55.366Z,27.05
2022-10-11T23:54:25.876Z,32.97
2022-10-11T23:56:55.836Z,31.88
2022-10-11T23:59:27.497Z,26.65
